sensor_id;sensor_type;location;lat;lon;timestamp;P1;durP1;ratioP1;P2;durP2;ratioP2
15502;SDS011;7853;52.186;5.948;2023-10-08T00:00:59;12.66;;;4.53;;
15502;SDS011;7853;52.186;5.948;2023-10-08T00:01:50;14.19;;;4.50;;
15502;SDS011;7853;52.186;5.948;2023-10-08T00:02:42;14.70;;;4.45;;
15502;SDS011;7853;52.186;5.948;2023-10-08T00:03:38;13.59;;;4.45;;
15502;SDS011;7853;52.186;5.948;2023-10-08T00:04:36;13.13;;;4.42;;
15502;SDS011;7853;52.186;5.948;2023-10-08T00:05:35;13.62;;;4.33;;
15502;SDS011;7853;52.186;5.948;2023-10-08T00:06:34;16.65;;;4.53;;
15502;SDS011;7853;52.186;5.948;2023-10-08T00:07:34;14.50;;;4.52;;
15502;SDS011;7853;52.186;5.948;2023-10-08T00:08:34;12.56;;;4.23;;
15502;SDS011;7853;52.186;5.948;2023-10-08T00:09:34;12.77;;;4.41;;
15502;SDS011;7853;52.186;5.948;2023-10-08T00:10:34;11.52;;;4.34;;
15502;SDS011;7853;52.186;5.948;2023-10-08T00:11:34;11.82;;;3.89;;
15502;SDS011;7853;52.186;5.948;2023-10-08T00:12:34;16.15;;;4.64;;
15502;SDS011;7853;52.186;5.948;2023-10-08T00:13:34;12.18;;;3.71;;
15502;SDS011;7853;52.186;5.948;2023-10-08T00:14:34;11.56;;;3.89;;
15502;SDS011;7853;52.186;5.948;2023-10-08T00:15:34;12.73;;;4.66;;
15502;SDS011;7853;52.186;5.948;2023-10-08T00:16:34;14.39;;;4.47;;
15502;SDS011;7853;52.186;5.948;2023-10-08T00:17:34;11.19;;;4.22;;
15502;SDS011;7853;52.186;5.948;2023-10-08T00:18:35;15.87;;;4.52;;
15502;SDS011;7853;52.186;5.948;2023-10-08T00:19:34;14.28;;;4.74;;
15502;SDS011;7853;52.186;5.948;2023-10-08T00:20:34;15.60;;;4.67;;
15502;SDS011;7853;52.186;5.948;2023-10-08T00:21:34;12.85;;;4.28;;
15502;SDS011;7853;52.186;5.948;2023-10-08T00:22:34;16.60;;;5.15;;
15502;SDS011;7853;52.186;5.948;2023-10-08T00:23:34;13.21;;;4.33;;
15502;SDS011;7853;52.186;5.948;2023-10-08T00:24:34;14.92;;;4.26;;
15502;SDS011;7853;52.186;5.948;2023-10-08T00:25:34;13.05;;;4.17;;
15502;SDS011;7853;52.186;5.948;2023-10-08T00:26:34;12.02;;;4.29;;
15502;SDS011;7853;52.186;5.948;2023-10-08T00:27:34;12.55;;;4.41;;
15502;SDS011;7853;52.186;5.948;2023-10-08T00:28:34;13.58;;;4.13;;
15502;SDS011;7853;52.186;5.948;2023-10-08T00:29:34;14.22;;;4.24;;
15502;SDS011;7853;52.186;5.948;2023-10-08T00:30:34;15.77;;;4.99;;
15502;SDS011;7853;52.186;5.948;2023-10-08T00:31:34;15.07;;;4.62;;
15502;SDS011;7853;52.186;5.948;2023-10-08T00:32:34;15.61;;;4.55;;
15502;SDS011;7853;52.186;5.948;2023-10-08T00:33:34;13.30;;;4.40;;
15502;SDS011;7853;52.186;5.948;2023-10-08T00:34:34;14.38;;;4.31;;
15502;SDS011;7853;52.186;5.948;2023-10-08T00:35:37;14.33;;;4.72;;
15502;SDS011;7853;52.186;5.948;2023-10-08T00:36:34;13.36;;;4.57;;
15502;SDS011;7853;52.186;5.948;2023-10-08T00:37:34;14.02;;;4.28;;
15502;SDS011;7853;52.186;5.948;2023-10-08T00:38:34;11.18;;;4.61;;
15502;SDS011;7853;52.186;5.948;2023-10-08T00:39:34;12.38;;;4.24;;
15502;SDS011;7853;52.186;5.948;2023-10-08T00:40:36;12.70;;;4.27;;
15502;SDS011;7853;52.186;5.948;2023-10-08T00:41:35;13.58;;;4.35;;
15502;SDS011;7853;52.186;5.948;2023-10-08T00:42:34;12.76;;;4.59;;
15502;SDS011;7853;52.186;5.948;2023-10-08T00:43:35;14.82;;;4.82;;
15502;SDS011;7853;52.186;5.948;2023-10-08T00:44:34;12.36;;;4.58;;
15502;SDS011;7853;52.186;5.948;2023-10-08T00:45:35;13.23;;;4.34;;
15502;SDS011;7853;52.186;5.948;2023-10-08T00:46:35;15.21;;;4.53;;
15502;SDS011;7853;52.186;5.948;2023-10-08T00:47:35;15.65;;;4.65;;
15502;SDS011;7853;52.186;5.948;2023-10-08T00:48:35;14.84;;;4.65;;
15502;SDS011;7853;52.186;5.948;2023-10-08T00:49:35;15.56;;;4.86;;
15502;SDS011;7853;52.186;5.948;2023-10-08T00:50:35;13.83;;;4.41;;
15502;SDS011;7853;52.186;5.948;2023-10-08T00:51:35;12.53;;;4.53;;
15502;SDS011;7853;52.186;5.948;2023-10-08T00:52:35;12.71;;;4.38;;
15502;SDS011;7853;52.186;5.948;2023-10-08T00:53:35;12.44;;;4.63;;
15502;SDS011;7853;52.186;5.948;2023-10-08T00:54:35;15.62;;;4.48;;
15502;SDS011;7853;52.186;5.948;2023-10-08T00:55:35;15.90;;;4.87;;
15502;SDS011;7853;52.186;5.948;2023-10-08T00:56:35;12.65;;;4.59;;
15502;SDS011;7853;52.186;5.948;2023-10-08T00:57:35;14.43;;;4.58;;
15502;SDS011;7853;52.186;5.948;2023-10-08T00:58:35;15.49;;;4.45;;
15502;SDS011;7853;52.186;5.948;2023-10-08T00:59:35;14.73;;;4.73;;
15502;SDS011;7853;52.186;5.948;2023-10-08T01:00:35;13.45;;;4.50;;
15502;SDS011;7853;52.186;5.948;2023-10-08T01:01:35;13.02;;;4.29;;
15502;SDS011;7853;52.186;5.948;2023-10-08T01:02:35;13.86;;;4.41;;
15502;SDS011;7853;52.186;5.948;2023-10-08T01:03:35;15.61;;;4.63;;
15502;SDS011;7853;52.186;5.948;2023-10-08T01:04:35;13.69;;;4.57;;
15502;SDS011;7853;52.186;5.948;2023-10-08T01:05:35;14.09;;;4.59;;
15502;SDS011;7853;52.186;5.948;2023-10-08T01:06:35;13.53;;;4.55;;
15502;SDS011;7853;52.186;5.948;2023-10-08T01:07:35;15.71;;;5.06;;
15502;SDS011;7853;52.186;5.948;2023-10-08T01:08:35;12.79;;;4.58;;
15502;SDS011;7853;52.186;5.948;2023-10-08T01:09:35;11.20;;;4.58;;
15502;SDS011;7853;52.186;5.948;2023-10-08T01:10:35;11.89;;;4.21;;
15502;SDS011;7853;52.186;5.948;2023-10-08T01:11:35;13.37;;;4.10;;
15502;SDS011;7853;52.186;5.948;2023-10-08T01:12:35;14.26;;;4.71;;
15502;SDS011;7853;52.186;5.948;2023-10-08T01:13:35;11.93;;;4.84;;
15502;SDS011;7853;52.186;5.948;2023-10-08T01:14:35;12.89;;;4.64;;
15502;SDS011;7853;52.186;5.948;2023-10-08T01:15:35;14.49;;;4.53;;
15502;SDS011;7853;52.186;5.948;2023-10-08T01:16:35;12.14;;;4.26;;
15502;SDS011;7853;52.186;5.948;2023-10-08T01:17:35;13.40;;;5.21;;
15502;SDS011;7853;52.186;5.948;2023-10-08T01:18:35;15.19;;;4.88;;
15502;SDS011;7853;52.186;5.948;2023-10-08T01:19:35;13.12;;;4.24;;
15502;SDS011;7853;52.186;5.948;2023-10-08T01:20:35;11.52;;;4.07;;
15502;SDS011;7853;52.186;5.948;2023-10-08T01:21:35;15.48;;;5.09;;
15502;SDS011;7853;52.186;5.948;2023-10-08T01:22:35;16.47;;;4.98;;
15502;SDS011;7853;52.186;5.948;2023-10-08T01:23:35;14.73;;;4.55;;
15502;SDS011;7853;52.186;5.948;2023-10-08T01:24:35;12.86;;;4.25;;
15502;SDS011;7853;52.186;5.948;2023-10-08T01:25:36;13.60;;;4.80;;
15502;SDS011;7853;52.186;5.948;2023-10-08T01:26:35;12.81;;;4.48;;
15502;SDS011;7853;52.186;5.948;2023-10-08T01:27:35;11.28;;;4.57;;
15502;SDS011;7853;52.186;5.948;2023-10-08T01:28:35;11.37;;;4.47;;
15502;SDS011;7853;52.186;5.948;2023-10-08T01:29:35;14.17;;;4.93;;
15502;SDS011;7853;52.186;5.948;2023-10-08T01:30:35;13.64;;;4.74;;
15502;SDS011;7853;52.186;5.948;2023-10-08T01:31:35;13.56;;;4.38;;
15502;SDS011;7853;52.186;5.948;2023-10-08T01:32:35;10.35;;;4.26;;
15502;SDS011;7853;52.186;5.948;2023-10-08T01:33:35;12.05;;;4.20;;
15502;SDS011;7853;52.186;5.948;2023-10-08T01:34:35;12.94;;;4.28;;
15502;SDS011;7853;52.186;5.948;2023-10-08T01:35:35;14.12;;;4.56;;
15502;SDS011;7853;52.186;5.948;2023-10-08T01:36:35;12.33;;;4.58;;
15502;SDS011;7853;52.186;5.948;2023-10-08T01:37:35;14.20;;;4.47;;
15502;SDS011;7853;52.186;5.948;2023-10-08T01:38:35;12.29;;;4.44;;
15502;SDS011;7853;52.186;5.948;2023-10-08T01:39:36;11.59;;;4.51;;
15502;SDS011;7853;52.186;5.948;2023-10-08T01:40:35;12.31;;;4.59;;
15502;SDS011;7853;52.186;5.948;2023-10-08T01:41:35;13.06;;;4.39;;
15502;SDS011;7853;52.186;5.948;2023-10-08T01:42:35;12.65;;;4.44;;
15502;SDS011;7853;52.186;5.948;2023-10-08T01:43:35;11.92;;;4.68;;
15502;SDS011;7853;52.186;5.948;2023-10-08T01:44:35;11.03;;;4.19;;
15502;SDS011;7853;52.186;5.948;2023-10-08T01:45:35;12.51;;;4.53;;
15502;SDS011;7853;52.186;5.948;2023-10-08T01:46:35;12.82;;;4.56;;
15502;SDS011;7853;52.186;5.948;2023-10-08T01:47:35;10.95;;;4.65;;
15502;SDS011;7853;52.186;5.948;2023-10-08T01:48:35;12.20;;;4.32;;
15502;SDS011;7853;52.186;5.948;2023-10-08T01:49:35;15.25;;;4.64;;
15502;SDS011;7853;52.186;5.948;2023-10-08T01:50:35;14.03;;;4.61;;
15502;SDS011;7853;52.186;5.948;2023-10-08T01:51:35;13.97;;;4.74;;
15502;SDS011;7853;52.186;5.948;2023-10-08T01:52:35;15.16;;;4.88;;
15502;SDS011;7853;52.186;5.948;2023-10-08T01:53:35;14.42;;;4.35;;
15502;SDS011;7853;52.186;5.948;2023-10-08T01:54:35;9.82;;;4.20;;
15502;SDS011;7853;52.186;5.948;2023-10-08T01:55:35;12.76;;;4.19;;
15502;SDS011;7853;52.186;5.948;2023-10-08T01:56:36;13.05;;;4.29;;
15502;SDS011;7853;52.186;5.948;2023-10-08T01:57:35;11.81;;;4.52;;
15502;SDS011;7853;52.186;5.948;2023-10-08T01:58:35;10.92;;;4.61;;
15502;SDS011;7853;52.186;5.948;2023-10-08T01:59:35;13.20;;;4.36;;
15502;SDS011;7853;52.186;5.948;2023-10-08T02:00:35;13.41;;;4.33;;
15502;SDS011;7853;52.186;5.948;2023-10-08T02:01:35;13.01;;;4.76;;
15502;SDS011;7853;52.186;5.948;2023-10-08T02:02:35;11.61;;;4.61;;
15502;SDS011;7853;52.186;5.948;2023-10-08T02:03:35;10.94;;;4.23;;
15502;SDS011;7853;52.186;5.948;2023-10-08T02:04:35;13.22;;;4.68;;
15502;SDS011;7853;52.186;5.948;2023-10-08T02:05:35;12.00;;;4.12;;
15502;SDS011;7853;52.186;5.948;2023-10-08T02:06:35;11.67;;;4.14;;
15502;SDS011;7853;52.186;5.948;2023-10-08T02:07:35;9.90;;;4.22;;
15502;SDS011;7853;52.186;5.948;2023-10-08T02:08:35;11.19;;;4.21;;
15502;SDS011;7853;52.186;5.948;2023-10-08T02:09:35;12.20;;;4.71;;
15502;SDS011;7853;52.186;5.948;2023-10-08T02:10:35;12.06;;;4.68;;
15502;SDS011;7853;52.186;5.948;2023-10-08T02:11:42;15.50;;;5.09;;
15502;SDS011;7853;52.186;5.948;2023-10-08T02:12:35;10.60;;;3.97;;
15502;SDS011;7853;52.186;5.948;2023-10-08T02:13:35;13.70;;;4.47;;
15502;SDS011;7853;52.186;5.948;2023-10-08T02:14:35;13.27;;;4.41;;
15502;SDS011;7853;52.186;5.948;2023-10-08T02:15:35;12.43;;;4.39;;
15502;SDS011;7853;52.186;5.948;2023-10-08T02:16:35;14.08;;;4.19;;
15502;SDS011;7853;52.186;5.948;2023-10-08T02:17:35;12.21;;;4.74;;
15502;SDS011;7853;52.186;5.948;2023-10-08T02:18:35;12.88;;;4.71;;
15502;SDS011;7853;52.186;5.948;2023-10-08T02:19:35;13.06;;;4.53;;
15502;SDS011;7853;52.186;5.948;2023-10-08T02:20:35;13.30;;;4.64;;
15502;SDS011;7853;52.186;5.948;2023-10-08T02:21:35;15.34;;;4.58;;
15502;SDS011;7853;52.186;5.948;2023-10-08T02:22:35;14.84;;;4.47;;
15502;SDS011;7853;52.186;5.948;2023-10-08T02:23:35;13.45;;;4.64;;
15502;SDS011;7853;52.186;5.948;2023-10-08T02:24:35;12.07;;;4.34;;
15502;SDS011;7853;52.186;5.948;2023-10-08T02:25:35;14.19;;;5.04;;
15502;SDS011;7853;52.186;5.948;2023-10-08T02:26:35;11.48;;;4.47;;
15502;SDS011;7853;52.186;5.948;2023-10-08T02:27:35;11.93;;;4.44;;
15502;SDS011;7853;52.186;5.948;2023-10-08T02:28:35;12.28;;;4.19;;
15502;SDS011;7853;52.186;5.948;2023-10-08T02:29:35;12.13;;;4.49;;
15502;SDS011;7853;52.186;5.948;2023-10-08T02:30:35;12.91;;;4.29;;
15502;SDS011;7853;52.186;5.948;2023-10-08T02:31:35;11.66;;;4.48;;
15502;SDS011;7853;52.186;5.948;2023-10-08T02:32:35;13.85;;;4.63;;
15502;SDS011;7853;52.186;5.948;2023-10-08T02:33:35;13.20;;;4.29;;
15502;SDS011;7853;52.186;5.948;2023-10-08T02:34:35;12.58;;;4.66;;
15502;SDS011;7853;52.186;5.948;2023-10-08T02:35:35;13.53;;;5.02;;
15502;SDS011;7853;52.186;5.948;2023-10-08T02:36:35;11.72;;;4.62;;
15502;SDS011;7853;52.186;5.948;2023-10-08T02:37:35;13.16;;;4.38;;
15502;SDS011;7853;52.186;5.948;2023-10-08T02:38:35;14.40;;;4.91;;
15502;SDS011;7853;52.186;5.948;2023-10-08T02:39:35;12.17;;;4.77;;
15502;SDS011;7853;52.186;5.948;2023-10-08T02:40:36;12.25;;;4.51;;
15502;SDS011;7853;52.186;5.948;2023-10-08T02:41:35;13.20;;;4.68;;
15502;SDS011;7853;52.186;5.948;2023-10-08T02:42:35;12.01;;;4.14;;
15502;SDS011;7853;52.186;5.948;2023-10-08T02:43:35;11.66;;;4.75;;
15502;SDS011;7853;52.186;5.948;2023-10-08T02:44:35;12.39;;;5.08;;
15502;SDS011;7853;52.186;5.948;2023-10-08T02:45:35;11.09;;;4.63;;
15502;SDS011;7853;52.186;5.948;2023-10-08T02:46:35;13.32;;;4.77;;
15502;SDS011;7853;52.186;5.948;2023-10-08T02:47:35;11.31;;;4.57;;
15502;SDS011;7853;52.186;5.948;2023-10-08T02:48:35;14.06;;;4.58;;
15502;SDS011;7853;52.186;5.948;2023-10-08T02:49:35;13.31;;;4.71;;
15502;SDS011;7853;52.186;5.948;2023-10-08T02:50:35;12.98;;;5.14;;
15502;SDS011;7853;52.186;5.948;2023-10-08T02:51:35;13.13;;;4.86;;
15502;SDS011;7853;52.186;5.948;2023-10-08T02:52:35;12.47;;;4.91;;
15502;SDS011;7853;52.186;5.948;2023-10-08T02:53:35;15.79;;;5.09;;
15502;SDS011;7853;52.186;5.948;2023-10-08T02:54:35;12.75;;;5.05;;
15502;SDS011;7853;52.186;5.948;2023-10-08T02:55:35;14.77;;;5.25;;
15502;SDS011;7853;52.186;5.948;2023-10-08T02:56:35;14.69;;;5.49;;
15502;SDS011;7853;52.186;5.948;2023-10-08T02:57:35;14.01;;;5.28;;
15502;SDS011;7853;52.186;5.948;2023-10-08T02:58:35;16.23;;;6.41;;
15502;SDS011;7853;52.186;5.948;2023-10-08T02:59:35;15.91;;;5.85;;
15502;SDS011;7853;52.186;5.948;2023-10-08T03:00:35;15.48;;;6.36;;
15502;SDS011;7853;52.186;5.948;2023-10-08T03:01:35;14.18;;;5.42;;
15502;SDS011;7853;52.186;5.948;2023-10-08T03:02:35;12.53;;;5.23;;
15502;SDS011;7853;52.186;5.948;2023-10-08T03:03:35;10.42;;;4.86;;
15502;SDS011;7853;52.186;5.948;2023-10-08T03:04:35;15.55;;;5.10;;
15502;SDS011;7853;52.186;5.948;2023-10-08T03:05:35;17.89;;;5.56;;
15502;SDS011;7853;52.186;5.948;2023-10-08T03:06:35;13.80;;;5.46;;
15502;SDS011;7853;52.186;5.948;2023-10-08T03:07:35;12.71;;;4.68;;
15502;SDS011;7853;52.186;5.948;2023-10-08T03:08:35;12.82;;;4.70;;
15502;SDS011;7853;52.186;5.948;2023-10-08T03:09:35;9.84;;;4.36;;
15502;SDS011;7853;52.186;5.948;2023-10-08T03:10:35;9.33;;;4.03;;
15502;SDS011;7853;52.186;5.948;2023-10-08T03:11:35;10.81;;;4.40;;
15502;SDS011;7853;52.186;5.948;2023-10-08T03:12:35;9.01;;;3.93;;
15502;SDS011;7853;52.186;5.948;2023-10-08T03:13:35;8.70;;;3.87;;
15502;SDS011;7853;52.186;5.948;2023-10-08T03:14:35;7.19;;;3.70;;
15502;SDS011;7853;52.186;5.948;2023-10-08T03:15:35;10.41;;;4.60;;
15502;SDS011;7853;52.186;5.948;2023-10-08T03:16:35;7.43;;;3.68;;
15502;SDS011;7853;52.186;5.948;2023-10-08T03:17:35;6.75;;;2.95;;
15502;SDS011;7853;52.186;5.948;2023-10-08T03:18:35;7.01;;;2.72;;
15502;SDS011;7853;52.186;5.948;2023-10-08T03:19:35;4.51;;;2.59;;
15502;SDS011;7853;52.186;5.948;2023-10-08T03:20:35;5.79;;;2.46;;
15502;SDS011;7853;52.186;5.948;2023-10-08T03:21:35;5.87;;;2.12;;
15502;SDS011;7853;52.186;5.948;2023-10-08T03:22:35;2.86;;;2.00;;
15502;SDS011;7853;52.186;5.948;2023-10-08T03:23:35;4.89;;;2.13;;
15502;SDS011;7853;52.186;5.948;2023-10-08T03:24:35;6.55;;;2.23;;
15502;SDS011;7853;52.186;5.948;2023-10-08T03:25:35;4.77;;;2.11;;
15502;SDS011;7853;52.186;5.948;2023-10-08T03:26:35;4.90;;;2.22;;
15502;SDS011;7853;52.186;5.948;2023-10-08T03:27:35;4.59;;;2.04;;
15502;SDS011;7853;52.186;5.948;2023-10-08T03:28:35;4.17;;;1.95;;
15502;SDS011;7853;52.186;5.948;2023-10-08T03:29:35;5.21;;;2.01;;
15502;SDS011;7853;52.186;5.948;2023-10-08T03:30:35;4.97;;;1.84;;
15502;SDS011;7853;52.186;5.948;2023-10-08T03:31:35;3.69;;;1.62;;
15502;SDS011;7853;52.186;5.948;2023-10-08T03:32:35;3.88;;;1.76;;
15502;SDS011;7853;52.186;5.948;2023-10-08T03:33:35;4.94;;;1.70;;
15502;SDS011;7853;52.186;5.948;2023-10-08T03:34:35;3.63;;;1.62;;
15502;SDS011;7853;52.186;5.948;2023-10-08T03:35:35;5.67;;;1.80;;
15502;SDS011;7853;52.186;5.948;2023-10-08T03:36:35;4.23;;;1.63;;
15502;SDS011;7853;52.186;5.948;2023-10-08T03:37:35;3.60;;;1.68;;
15502;SDS011;7853;52.186;5.948;2023-10-08T03:38:36;2.81;;;1.55;;
15502;SDS011;7853;52.186;5.948;2023-10-08T03:39:35;4.44;;;1.80;;
15502;SDS011;7853;52.186;5.948;2023-10-08T03:40:35;3.67;;;1.81;;
15502;SDS011;7853;52.186;5.948;2023-10-08T03:41:35;3.97;;;1.62;;
15502;SDS011;7853;52.186;5.948;2023-10-08T03:42:35;3.49;;;1.64;;
15502;SDS011;7853;52.186;5.948;2023-10-08T03:43:35;4.12;;;1.96;;
15502;SDS011;7853;52.186;5.948;2023-10-08T03:44:35;5.61;;;1.68;;
15502;SDS011;7853;52.186;5.948;2023-10-08T03:45:35;4.02;;;1.68;;
15502;SDS011;7853;52.186;5.948;2023-10-08T03:46:35;3.91;;;1.81;;
15502;SDS011;7853;52.186;5.948;2023-10-08T03:47:35;4.45;;;1.81;;
15502;SDS011;7853;52.186;5.948;2023-10-08T03:48:35;5.57;;;1.66;;
15502;SDS011;7853;52.186;5.948;2023-10-08T03:49:35;3.79;;;1.49;;
15502;SDS011;7853;52.186;5.948;2023-10-08T03:50:35;4.31;;;2.13;;
15502;SDS011;7853;52.186;5.948;2023-10-08T03:51:35;5.34;;;1.76;;
15502;SDS011;7853;52.186;5.948;2023-10-08T03:52:35;6.25;;;1.53;;
15502;SDS011;7853;52.186;5.948;2023-10-08T03:53:35;2.63;;;1.48;;
15502;SDS011;7853;52.186;5.948;2023-10-08T03:54:35;3.69;;;1.61;;
15502;SDS011;7853;52.186;5.948;2023-10-08T03:55:35;4.48;;;1.62;;
15502;SDS011;7853;52.186;5.948;2023-10-08T03:56:35;4.01;;;1.49;;
15502;SDS011;7853;52.186;5.948;2023-10-08T03:57:35;4.77;;;1.47;;
15502;SDS011;7853;52.186;5.948;2023-10-08T03:58:35;3.35;;;1.40;;
15502;SDS011;7853;52.186;5.948;2023-10-08T03:59:35;3.48;;;1.64;;
15502;SDS011;7853;52.186;5.948;2023-10-08T04:00:35;4.63;;;1.65;;
15502;SDS011;7853;52.186;5.948;2023-10-08T04:01:35;5.24;;;1.65;;
15502;SDS011;7853;52.186;5.948;2023-10-08T04:02:35;4.98;;;1.65;;
15502;SDS011;7853;52.186;5.948;2023-10-08T04:03:35;3.93;;;1.43;;
15502;SDS011;7853;52.186;5.948;2023-10-08T04:04:35;4.08;;;1.72;;
15502;SDS011;7853;52.186;5.948;2023-10-08T04:05:35;3.56;;;1.58;;
15502;SDS011;7853;52.186;5.948;2023-10-08T04:06:35;3.81;;;1.63;;
15502;SDS011;7853;52.186;5.948;2023-10-08T04:07:35;3.93;;;1.56;;
15502;SDS011;7853;52.186;5.948;2023-10-08T04:08:35;3.03;;;1.40;;
15502;SDS011;7853;52.186;5.948;2023-10-08T04:09:35;3.21;;;1.38;;
15502;SDS011;7853;52.186;5.948;2023-10-08T04:10:35;3.18;;;1.77;;
15502;SDS011;7853;52.186;5.948;2023-10-08T04:11:35;4.33;;;1.54;;
15502;SDS011;7853;52.186;5.948;2023-10-08T04:12:35;3.25;;;1.43;;
15502;SDS011;7853;52.186;5.948;2023-10-08T04:13:35;3.62;;;1.48;;
15502;SDS011;7853;52.186;5.948;2023-10-08T04:14:35;4.18;;;1.36;;
15502;SDS011;7853;52.186;5.948;2023-10-08T04:15:35;3.57;;;1.58;;
15502;SDS011;7853;52.186;5.948;2023-10-08T04:16:35;2.51;;;1.33;;
15502;SDS011;7853;52.186;5.948;2023-10-08T04:17:35;2.12;;;1.29;;
15502;SDS011;7853;52.186;5.948;2023-10-08T04:18:35;3.89;;;1.60;;
15502;SDS011;7853;52.186;5.948;2023-10-08T04:19:35;2.78;;;1.45;;
15502;SDS011;7853;52.186;5.948;2023-10-08T04:20:35;3.26;;;1.46;;
15502;SDS011;7853;52.186;5.948;2023-10-08T04:21:35;1.95;;;1.31;;
15502;SDS011;7853;52.186;5.948;2023-10-08T04:22:35;2.19;;;1.25;;
15502;SDS011;7853;52.186;5.948;2023-10-08T04:23:35;2.26;;;1.17;;
15502;SDS011;7853;52.186;5.948;2023-10-08T04:24:35;2.36;;;1.23;;
15502;SDS011;7853;52.186;5.948;2023-10-08T04:25:35;2.47;;;1.29;;
15502;SDS011;7853;52.186;5.948;2023-10-08T04:26:35;2.60;;;1.35;;
15502;SDS011;7853;52.186;5.948;2023-10-08T04:27:35;3.42;;;1.47;;
15502;SDS011;7853;52.186;5.948;2023-10-08T04:28:35;1.89;;;1.12;;
15502;SDS011;7853;52.186;5.948;2023-10-08T04:29:35;2.78;;;1.25;;
15502;SDS011;7853;52.186;5.948;2023-10-08T04:30:35;2.82;;;1.25;;
15502;SDS011;7853;52.186;5.948;2023-10-08T04:31:35;2.11;;;1.41;;
15502;SDS011;7853;52.186;5.948;2023-10-08T04:32:35;3.68;;;1.17;;
15502;SDS011;7853;52.186;5.948;2023-10-08T04:33:35;2.03;;;1.16;;
15502;SDS011;7853;52.186;5.948;2023-10-08T04:34:35;1.92;;;1.14;;
15502;SDS011;7853;52.186;5.948;2023-10-08T04:35:35;1.78;;;1.17;;
15502;SDS011;7853;52.186;5.948;2023-10-08T04:36:35;1.96;;;1.23;;
15502;SDS011;7853;52.186;5.948;2023-10-08T04:37:35;2.37;;;1.25;;
15502;SDS011;7853;52.186;5.948;2023-10-08T04:38:35;2.33;;;1.26;;
15502;SDS011;7853;52.186;5.948;2023-10-08T04:39:35;2.76;;;1.27;;
15502;SDS011;7853;52.186;5.948;2023-10-08T04:40:35;2.07;;;1.18;;
15502;SDS011;7853;52.186;5.948;2023-10-08T04:41:35;2.10;;;1.30;;
15502;SDS011;7853;52.186;5.948;2023-10-08T04:42:35;2.35;;;1.24;;
15502;SDS011;7853;52.186;5.948;2023-10-08T04:43:35;1.53;;;1.15;;
15502;SDS011;7853;52.186;5.948;2023-10-08T04:44:35;2.26;;;1.16;;
15502;SDS011;7853;52.186;5.948;2023-10-08T04:45:35;2.17;;;1.17;;
15502;SDS011;7853;52.186;5.948;2023-10-08T04:46:35;2.11;;;1.22;;
15502;SDS011;7853;52.186;5.948;2023-10-08T04:47:35;2.38;;;1.16;;
15502;SDS011;7853;52.186;5.948;2023-10-08T04:48:35;2.36;;;1.27;;
15502;SDS011;7853;52.186;5.948;2023-10-08T04:49:35;1.57;;;1.11;;
15502;SDS011;7853;52.186;5.948;2023-10-08T04:50:35;1.81;;;1.23;;
15502;SDS011;7853;52.186;5.948;2023-10-08T04:51:35;2.20;;;1.24;;
15502;SDS011;7853;52.186;5.948;2023-10-08T04:52:35;1.99;;;1.33;;
15502;SDS011;7853;52.186;5.948;2023-10-08T04:53:35;1.85;;;1.13;;
15502;SDS011;7853;52.186;5.948;2023-10-08T04:54:35;2.31;;;1.23;;
15502;SDS011;7853;52.186;5.948;2023-10-08T04:55:35;1.98;;;1.32;;
15502;SDS011;7853;52.186;5.948;2023-10-08T04:56:35;1.71;;;1.29;;
15502;SDS011;7853;52.186;5.948;2023-10-08T04:57:35;1.80;;;1.23;;
15502;SDS011;7853;52.186;5.948;2023-10-08T04:58:35;3.16;;;1.55;;
15502;SDS011;7853;52.186;5.948;2023-10-08T04:59:35;3.29;;;1.43;;
15502;SDS011;7853;52.186;5.948;2023-10-08T05:00:35;1.98;;;1.37;;
15502;SDS011;7853;52.186;5.948;2023-10-08T05:01:35;2.48;;;1.47;;
15502;SDS011;7853;52.186;5.948;2023-10-08T05:02:35;2.51;;;1.47;;
15502;SDS011;7853;52.186;5.948;2023-10-08T05:03:35;1.93;;;1.27;;
15502;SDS011;7853;52.186;5.948;2023-10-08T05:04:35;2.06;;;1.39;;
15502;SDS011;7853;52.186;5.948;2023-10-08T05:05:35;1.76;;;1.35;;
15502;SDS011;7853;52.186;5.948;2023-10-08T05:06:35;2.02;;;1.32;;
15502;SDS011;7853;52.186;5.948;2023-10-08T05:07:35;2.46;;;1.29;;
15502;SDS011;7853;52.186;5.948;2023-10-08T05:08:35;1.96;;;1.41;;
15502;SDS011;7853;52.186;5.948;2023-10-08T05:09:35;2.16;;;1.43;;
15502;SDS011;7853;52.186;5.948;2023-10-08T05:10:35;2.27;;;1.40;;
15502;SDS011;7853;52.186;5.948;2023-10-08T05:11:35;1.86;;;1.50;;
15502;SDS011;7853;52.186;5.948;2023-10-08T05:12:35;2.74;;;1.51;;
15502;SDS011;7853;52.186;5.948;2023-10-08T05:13:35;2.21;;;1.48;;
15502;SDS011;7853;52.186;5.948;2023-10-08T05:14:35;2.17;;;1.52;;
15502;SDS011;7853;52.186;5.948;2023-10-08T05:15:35;2.16;;;1.45;;
15502;SDS011;7853;52.186;5.948;2023-10-08T05:16:35;2.84;;;1.47;;
15502;SDS011;7853;52.186;5.948;2023-10-08T05:17:35;2.51;;;1.46;;
15502;SDS011;7853;52.186;5.948;2023-10-08T05:18:35;2.53;;;1.46;;
15502;SDS011;7853;52.186;5.948;2023-10-08T05:19:35;1.78;;;1.43;;
15502;SDS011;7853;52.186;5.948;2023-10-08T05:20:35;2.04;;;1.47;;
15502;SDS011;7853;52.186;5.948;2023-10-08T05:21:35;2.13;;;1.50;;
15502;SDS011;7853;52.186;5.948;2023-10-08T05:22:35;2.71;;;1.41;;
15502;SDS011;7853;52.186;5.948;2023-10-08T05:23:35;2.13;;;1.33;;
15502;SDS011;7853;52.186;5.948;2023-10-08T05:24:35;1.67;;;1.47;;
15502;SDS011;7853;52.186;5.948;2023-10-08T05:25:35;2.03;;;1.47;;
15502;SDS011;7853;52.186;5.948;2023-10-08T05:26:38;2.94;;;1.77;;
15502;SDS011;7853;52.186;5.948;2023-10-08T05:27:35;1.84;;;1.48;;
15502;SDS011;7853;52.186;5.948;2023-10-08T05:28:35;2.05;;;1.49;;
15502;SDS011;7853;52.186;5.948;2023-10-08T05:29:35;2.63;;;1.55;;
15502;SDS011;7853;52.186;5.948;2023-10-08T05:30:35;2.68;;;1.69;;
15502;SDS011;7853;52.186;5.948;2023-10-08T05:31:35;2.08;;;1.45;;
15502;SDS011;7853;52.186;5.948;2023-10-08T05:32:35;1.95;;;1.46;;
15502;SDS011;7853;52.186;5.948;2023-10-08T05:33:35;2.22;;;1.63;;
15502;SDS011;7853;52.186;5.948;2023-10-08T05:34:35;2.39;;;1.48;;
15502;SDS011;7853;52.186;5.948;2023-10-08T05:35:35;2.54;;;1.63;;
15502;SDS011;7853;52.186;5.948;2023-10-08T05:36:35;2.88;;;1.54;;
15502;SDS011;7853;52.186;5.948;2023-10-08T05:37:35;2.78;;;1.50;;
15502;SDS011;7853;52.186;5.948;2023-10-08T05:38:35;2.48;;;1.48;;
15502;SDS011;7853;52.186;5.948;2023-10-08T05:39:35;1.98;;;1.45;;
15502;SDS011;7853;52.186;5.948;2023-10-08T05:40:35;2.70;;;1.45;;
15502;SDS011;7853;52.186;5.948;2023-10-08T05:41:35;1.83;;;1.49;;
15502;SDS011;7853;52.186;5.948;2023-10-08T05:42:35;1.74;;;1.55;;
15502;SDS011;7853;52.186;5.948;2023-10-08T05:43:35;2.33;;;1.61;;
15502;SDS011;7853;52.186;5.948;2023-10-08T05:44:35;2.20;;;1.56;;
15502;SDS011;7853;52.186;5.948;2023-10-08T05:45:35;2.62;;;1.46;;
15502;SDS011;7853;52.186;5.948;2023-10-08T05:46:35;2.32;;;1.64;;
15502;SDS011;7853;52.186;5.948;2023-10-08T05:47:35;2.07;;;1.64;;
15502;SDS011;7853;52.186;5.948;2023-10-08T05:48:35;3.13;;;2.01;;
15502;SDS011;7853;52.186;5.948;2023-10-08T05:49:35;2.59;;;1.65;;
15502;SDS011;7853;52.186;5.948;2023-10-08T05:50:35;2.19;;;1.67;;
15502;SDS011;7853;52.186;5.948;2023-10-08T05:51:35;1.92;;;1.71;;
15502;SDS011;7853;52.186;5.948;2023-10-08T05:52:35;2.63;;;1.71;;
15502;SDS011;7853;52.186;5.948;2023-10-08T05:53:35;3.43;;;1.78;;
15502;SDS011;7853;52.186;5.948;2023-10-08T05:54:35;2.29;;;1.83;;
15502;SDS011;7853;52.186;5.948;2023-10-08T05:55:35;2.73;;;1.75;;
15502;SDS011;7853;52.186;5.948;2023-10-08T05:56:35;2.21;;;1.59;;
15502;SDS011;7853;52.186;5.948;2023-10-08T05:57:35;2.09;;;1.69;;
15502;SDS011;7853;52.186;5.948;2023-10-08T05:58:35;2.82;;;1.77;;
15502;SDS011;7853;52.186;5.948;2023-10-08T05:59:35;3.45;;;1.83;;
15502;SDS011;7853;52.186;5.948;2023-10-08T06:00:35;2.55;;;1.74;;
15502;SDS011;7853;52.186;5.948;2023-10-08T06:01:35;2.46;;;1.68;;
15502;SDS011;7853;52.186;5.948;2023-10-08T06:02:35;2.53;;;1.84;;
15502;SDS011;7853;52.186;5.948;2023-10-08T06:03:35;2.85;;;1.90;;
15502;SDS011;7853;52.186;5.948;2023-10-08T06:04:35;2.93;;;1.88;;